sensor_id;sensor_type;location;lat;lon;timestamp;temperature;humidity
48806;DHT22;34625;47.176;27.548;2023-09-19T00:01:42;28.40;46.70
48806;DHT22;34625;47.176;27.548;2023-09-19T00:04:12;28.30;46.70
48806;DHT22;34625;47.176;27.548;2023-09-19T00:06:38;28.40;46.80
48806;DHT22;34625;47.176;27.548;2023-09-19T00:09:05;28.40;46.80
48806;DHT22;34625;47.176;27.548;2023-09-19T00:11:36;28.30;46.80
48806;DHT22;34625;47.176;27.548;2023-09-19T00:14:02;28.30;46.90
48806;DHT22;34625;47.176;27.548;2023-09-19T00:16:28;28.30;47.00
48806;DHT22;34625;47.176;27.548;2023-09-19T00:18:55;28.30;47.00
48806;DHT22;34625;47.176;27.548;2023-09-19T00:21:21;28.40;47.00
48806;DHT22;34625;47.176;27.548;2023-09-19T00:23:47;28.30;47.10
48806;DHT22;34625;47.176;27.548;2023-09-19T00:26:13;28.40;47.10
48806;DHT22;34625;47.176;27.548;2023-09-19T00:28:41;28.40;47.20
48806;DHT22;34625;47.176;27.548;2023-09-19T00:31:09;28.40;47.20
48806;DHT22;34625;47.176;27.548;2023-09-19T00:33:35;28.40;47.20
48806;DHT22;34625;47.176;27.548;2023-09-19T00:36:02;28.40;47.20
48806;DHT22;34625;47.176;27.548;2023-09-19T00:38:31;28.50;47.20
48806;DHT22;34625;47.176;27.548;2023-09-19T00:40:57;28.30;47.20
48806;DHT22;34625;47.176;27.548;2023-09-19T00:43:25;28.40;47.30
48806;DHT22;34625;47.176;27.548;2023-09-19T00:45:54;28.40;47.30
48806;DHT22;34625;47.176;27.548;2023-09-19T00:48:22;28.40;47.30
48806;DHT22;34625;47.176;27.548;2023-09-19T00:50:49;28.30;47.30
48806;DHT22;34625;47.176;27.548;2023-09-19T00:53:22;28.40;47.30
48806;DHT22;34625;47.176;27.548;2023-09-19T00:55:50;28.30;47.30
48806;DHT22;34625;47.176;27.548;2023-09-19T00:58:19;28.40;47.30
48806;DHT22;34625;47.176;27.548;2023-09-19T01:00:48;28.40;47.30
48806;DHT22;34625;47.176;27.548;2023-09-19T01:03:14;28.20;47.40
48806;DHT22;34625;47.176;27.548;2023-09-19T01:05:41;28.30;47.40
48806;DHT22;34625;47.176;27.548;2023-09-19T01:08:08;28.30;47.40
48806;DHT22;34625;47.176;27.548;2023-09-19T01:10:34;28.20;47.40
48806;DHT22;34625;47.176;27.548;2023-09-19T01:29:46;28.30;47.70
48806;DHT22;34625;47.176;27.548;2023-09-19T01:32:17;28.30;47.70
48806;DHT22;34625;47.176;27.548;2023-09-19T01:34:53;28.30;47.80
48806;DHT22;34625;47.176;27.548;2023-09-19T01:37:21;28.40;47.80
48806;DHT22;34625;47.176;27.548;2023-09-19T01:48:25;28.40;47.80
48806;DHT22;34625;47.176;27.548;2023-09-19T01:51:00;28.30;47.80
48806;DHT22;34625;47.176;27.548;2023-09-19T01:53:33;28.20;47.80
48806;DHT22;34625;47.176;27.548;2023-09-19T01:56:02;28.30;47.80
48806;DHT22;34625;47.176;27.548;2023-09-19T01:58:39;28.30;47.80
48806;DHT22;34625;47.176;27.548;2023-09-19T02:01:11;28.10;47.90
48806;DHT22;34625;47.176;27.548;2023-09-19T02:03:39;28.30;47.90
48806;DHT22;34625;47.176;27.548;2023-09-19T02:06:06;28.20;47.90
48806;DHT22;34625;47.176;27.548;2023-09-19T02:08:37;28.10;47.90
48806;DHT22;34625;47.176;27.548;2023-09-19T02:11:03;28.10;47.90
48806;DHT22;34625;47.176;27.548;2023-09-19T02:13:29;28.20;48.00
48806;DHT22;34625;47.176;27.548;2023-09-19T02:15:57;28.20;48.00
48806;DHT22;34625;47.176;27.548;2023-09-19T02:18:23;28.20;48.10
48806;DHT22;34625;47.176;27.548;2023-09-19T02:20:49;28.20;48.10
48806;DHT22;34625;47.176;27.548;2023-09-19T02:23:17;28.20;48.10
48806;DHT22;34625;47.176;27.548;2023-09-19T02:25:51;28.20;48.10
48806;DHT22;34625;47.176;27.548;2023-09-19T02:28:17;28.20;48.10
48806;DHT22;34625;47.176;27.548;2023-09-19T02:30:43;28.10;48.10
48806;DHT22;34625;47.176;27.548;2023-09-19T02:33:09;28.10;48.20
48806;DHT22;34625;47.176;27.548;2023-09-19T02:35:35;28.20;48.20
48806;DHT22;34625;47.176;27.548;2023-09-19T02:38:02;28.30;48.20
48806;DHT22;34625;47.176;27.548;2023-09-19T02:40:32;28.30;48.20
48806;DHT22;34625;47.176;27.548;2023-09-19T02:43:01;28.20;48.20
48806;DHT22;34625;47.176;27.548;2023-09-19T02:45:27;28.30;48.20
48806;DHT22;34625;47.176;27.548;2023-09-19T02:47:56;28.20;48.20
48806;DHT22;34625;47.176;27.548;2023-09-19T02:50:22;28.20;48.20
48806;DHT22;34625;47.176;27.548;2023-09-19T02:52:49;28.20;48.20
48806;DHT22;34625;47.176;27.548;2023-09-19T02:55:16;28.30;48.20
48806;DHT22;34625;47.176;27.548;2023-09-19T02:57:51;28.20;48.20
48806;DHT22;34625;47.176;27.548;2023-09-19T03:00:20;28.10;48.30
48806;DHT22;34625;47.176;27.548;2023-09-19T03:02:54;28.10;48.30
48806;DHT22;34625;47.176;27.548;2023-09-19T03:05:21;28.10;48.20
48806;DHT22;34625;47.176;27.548;2023-09-19T03:07:50;28.10;48.30
48806;DHT22;34625;47.176;27.548;2023-09-19T03:10:20;28.00;48.30
48806;DHT22;34625;47.176;27.548;2023-09-19T03:12:47;28.10;48.40
48806;DHT22;34625;47.176;27.548;2023-09-19T03:15:14;28.10;48.40
48806;DHT22;34625;47.176;27.548;2023-09-19T03:17:46;28.10;48.50
48806;DHT22;34625;47.176;27.548;2023-09-19T03:20:15;28.00;48.50
48806;DHT22;34625;47.176;27.548;2023-09-19T03:22:44;28.10;48.50
48806;DHT22;34625;47.176;27.548;2023-09-19T03:25:10;28.20;48.50
48806;DHT22;34625;47.176;27.548;2023-09-19T03:27:39;28.10;48.60
48806;DHT22;34625;47.176;27.548;2023-09-19T03:30:07;28.10;48.60
48806;DHT22;34625;47.176;27.548;2023-09-19T03:32:35;28.20;48.60
48806;DHT22;34625;47.176;27.548;2023-09-19T03:35:03;28.10;48.60
48806;DHT22;34625;47.176;27.548;2023-09-19T03:37:32;28.20;48.70
48806;DHT22;34625;47.176;27.548;2023-09-19T03:39:59;28.10;48.70
48806;DHT22;34625;47.176;27.548;2023-09-19T03:42:28;28.10;48.70
48806;DHT22;34625;47.176;27.548;2023-09-19T03:44:54;28.20;48.70
48806;DHT22;34625;47.176;27.548;2023-09-19T03:47:21;28.10;48.70
48806;DHT22;34625;47.176;27.548;2023-09-19T03:49:48;28.20;48.70
48806;DHT22;34625;47.176;27.548;2023-09-19T03:52:14;28.20;48.70
48806;DHT22;34625;47.176;27.548;2023-09-19T03:54:41;28.00;48.70
48806;DHT22;34625;47.176;27.548;2023-09-19T03:57:09;28.00;48.70
48806;DHT22;34625;47.176;27.548;2023-09-19T03:59:35;28.10;48.60
48806;DHT22;34625;47.176;27.548;2023-09-19T04:02:01;28.10;48.70
48806;DHT22;34625;47.176;27.548;2023-09-19T04:04:27;28.00;48.70
48806;DHT22;34625;47.176;27.548;2023-09-19T04:06:55;28.00;48.70
48806;DHT22;34625;47.176;27.548;2023-09-19T04:09:21;28.00;48.70
48806;DHT22;34625;47.176;27.548;2023-09-19T04:11:47;28.00;48.60
48806;DHT22;34625;47.176;27.548;2023-09-19T04:14:13;28.00;46.40
48806;DHT22;34625;47.176;27.548;2023-09-19T04:16:39;28.20;46.40
48806;DHT22;34625;47.176;27.548;2023-09-19T04:19:06;28.20;46.80
48806;DHT22;34625;47.176;27.548;2023-09-19T04:21:32;28.10;46.30
48806;DHT22;34625;47.176;27.548;2023-09-19T04:23:58;28.20;46.80
48806;DHT22;34625;47.176;27.548;2023-09-19T04:26:24;28.20;45.20
48806;DHT22;34625;47.176;27.548;2023-09-19T04:28:52;28.10;44.90
48806;DHT22;34625;47.176;27.548;2023-09-19T04:31:18;28.20;44.60
48806;DHT22;34625;47.176;27.548;2023-09-19T04:33:45;28.20;44.70
48806;DHT22;34625;47.176;27.548;2023-09-19T04:36:11;28.20;47.10
48806;DHT22;34625;47.176;27.548;2023-09-19T04:38:38;28.30;48.40
48806;DHT22;34625;47.176;27.548;2023-09-19T04:41:05;28.30;48.00
48806;DHT22;34625;47.176;27.548;2023-09-19T04:43:31;28.40;46.10
48806;DHT22;34625;47.176;27.548;2023-09-19T04:45:57;28.30;46.00
48806;DHT22;34625;47.176;27.548;2023-09-19T04:48:26;28.40;45.50
48806;DHT22;34625;47.176;27.548;2023-09-19T04:50:52;28.50;45.00
48806;DHT22;34625;47.176;27.548;2023-09-19T04:53:19;28.40;45.20
48806;DHT22;34625;47.176;27.548;2023-09-19T04:55:53;28.40;45.50
48806;DHT22;34625;47.176;27.548;2023-09-19T04:58:18;28.40;45.10
48806;DHT22;34625;47.176;27.548;2023-09-19T05:00:45;28.40;44.60
48806;DHT22;34625;47.176;27.548;2023-09-19T05:03:11;28.40;44.40
48806;DHT22;34625;47.176;27.548;2023-09-19T05:05:37;28.30;44.70
48806;DHT22;34625;47.176;27.548;2023-09-19T05:08:04;28.30;44.50
48806;DHT22;34625;47.176;27.548;2023-09-19T05:10:32;28.40;48.60
48806;DHT22;34625;47.176;27.548;2023-09-19T05:12:58;28.40;46.30
48806;DHT22;34625;47.176;27.548;2023-09-19T05:15:24;28.30;45.80
48806;DHT22;34625;47.176;27.548;2023-09-19T05:17:51;28.20;46.00
48806;DHT22;34625;47.176;27.548;2023-09-19T05:20:18;28.20;46.00
48806;DHT22;34625;47.176;27.548;2023-09-19T05:23:15;28.20;46.30
48806;DHT22;34625;47.176;27.548;2023-09-19T05:25:42;28.30;46.50
48806;DHT22;34625;47.176;27.548;2023-09-19T05:28:10;28.30;46.60
48806;DHT22;34625;47.176;27.548;2023-09-19T05:30:37;28.30;46.70
48806;DHT22;34625;47.176;27.548;2023-09-19T05:33:09;28.20;46.60
48806;DHT22;34625;47.176;27.548;2023-09-19T05:35:36;28.30;46.90
48806;DHT22;34625;47.176;27.548;2023-09-19T05:38:07;28.30;46.90
48806;DHT22;34625;47.176;27.548;2023-09-19T05:40:38;28.30;46.90
48806;DHT22;34625;47.176;27.548;2023-09-19T05:43:08;28.20;46.90
48806;DHT22;34625;47.176;27.548;2023-09-19T05:45:35;28.20;47.00
48806;DHT22;34625;47.176;27.548;2023-09-19T05:48:10;28.30;47.00
48806;DHT22;34625;47.176;27.548;2023-09-19T05:50:37;28.40;46.90
48806;DHT22;34625;47.176;27.548;2023-09-19T05:53:04;28.50;50.80
48806;DHT22;34625;47.176;27.548;2023-09-19T05:55:31;29.10;52.80
48806;DHT22;34625;47.176;27.548;2023-09-19T05:57:57;29.30;51.60
48806;DHT22;34625;47.176;27.548;2023-09-19T06:00:24;29.20;51.60
48806;DHT22;34625;47.176;27.548;2023-09-19T06:02:52;29.00;48.00
48806;DHT22;34625;47.176;27.548;2023-09-19T06:05:18;29.00;46.50
48806;DHT22;34625;47.176;27.548;2023-09-19T06:07:44;29.00;47.60
48806;DHT22;34625;47.176;27.548;2023-09-19T06:10:10;28.80;46.60
48806;DHT22;34625;47.176;27.548;2023-09-19T06:12:43;28.80;47.00
48806;DHT22;34625;47.176;27.548;2023-09-19T06:15:13;28.70;46.90
48806;DHT22;34625;47.176;27.548;2023-09-19T06:17:49;28.80;46.80
48806;DHT22;34625;47.176;27.548;2023-09-19T06:20:16;28.50;47.10
48806;DHT22;34625;47.176;27.548;2023-09-19T06:22:43;28.60;47.20
48806;DHT22;34625;47.176;27.548;2023-09-19T06:25:10;28.70;47.00
48806;DHT22;34625;47.176;27.548;2023-09-19T06:27:40;28.70;47.30
48806;DHT22;34625;47.176;27.548;2023-09-19T06:30:10;28.50;47.40
48806;DHT22;34625;47.176;27.548;2023-09-19T06:32:43;28.60;46.60
48806;DHT22;34625;47.176;27.548;2023-09-19T06:35:13;28.60;47.40
48806;DHT22;34625;47.176;27.548;2023-09-19T06:37:39;28.60;47.50
48806;DHT22;34625;47.176;27.548;2023-09-19T06:40:13;28.60;47.30
48806;DHT22;34625;47.176;27.548;2023-09-19T06:42:49;28.70;47.50
48806;DHT22;34625;47.176;27.548;2023-09-19T06:45:16;28.70;47.60
48806;DHT22;34625;47.176;27.548;2023-09-19T06:47:45;28.60;47.20
48806;DHT22;34625;47.176;27.548;2023-09-19T06:50:15;28.50;47.20
48806;DHT22;34625;47.176;27.548;2023-09-19T06:52:44;28.60;46.80
48806;DHT22;34625;47.176;27.548;2023-09-19T06:55:11;28.50;46.50
48806;DHT22;34625;47.176;27.548;2023-09-19T06:57:39;28.50;46.30
48806;DHT22;34625;47.176;27.548;2023-09-19T07:00:06;28.60;46.20
48806;DHT22;34625;47.176;27.548;2023-09-19T07:02:45;28.60;46.30
48806;DHT22;34625;47.176;27.548;2023-09-19T07:05:11;28.60;46.30
48806;DHT22;34625;47.176;27.548;2023-09-19T07:07:37;28.50;47.40
48806;DHT22;34625;47.176;27.548;2023-09-19T07:10:03;28.40;47.20
48806;DHT22;34625;47.176;27.548;2023-09-19T07:12:36;28.50;47.20
48806;DHT22;34625;47.176;27.548;2023-09-19T07:15:02;28.40;46.90
48806;DHT22;34625;47.176;27.548;2023-09-19T07:17:29;28.50;46.70
48806;DHT22;34625;47.176;27.548;2023-09-19T07:19:55;28.40;46.50
48806;DHT22;34625;47.176;27.548;2023-09-19T07:22:22;28.30;46.30
48806;DHT22;34625;47.176;27.548;2023-09-19T07:24:49;28.20;46.20
48806;DHT22;34625;47.176;27.548;2023-09-19T07:27:15;28.30;45.40
48806;DHT22;34625;47.176;27.548;2023-09-19T07:29:41;28.20;45.00
48806;DHT22;34625;47.176;27.548;2023-09-19T07:32:07;28.30;45.20
48806;DHT22;34625;47.176;27.548;2023-09-19T07:34:35;28.30;45.30
48806;DHT22;34625;47.176;27.548;2023-09-19T07:37:01;28.30;45.30
48806;DHT22;34625;47.176;27.548;2023-09-19T07:39:28;28.20;45.00
48806;DHT22;34625;47.176;27.548;2023-09-19T07:41:55;28.20;45.10
48806;DHT22;34625;47.176;27.548;2023-09-19T07:44:22;28.30;44.90
48806;DHT22;34625;47.176;27.548;2023-09-19T07:46:48;28.20;45.40
48806;DHT22;34625;47.176;27.548;2023-09-19T07:49:16;28.10;44.80
48806;DHT22;34625;47.176;27.548;2023-09-19T07:51:43;28.20;45.20
48806;DHT22;34625;47.176;27.548;2023-09-19T07:54:12;28.20;45.10
48806;DHT22;34625;47.176;27.548;2023-09-19T07:56:38;28.20;44.90
48806;DHT22;34625;47.176;27.548;2023-09-19T07:59:04;28.30;44.60
48806;DHT22;34625;47.176;27.548;2023-09-19T08:01:30;28.20;44.40
48806;DHT22;34625;47.176;27.548;2023-09-19T08:03:57;28.20;44.10
48806;DHT22;34625;47.176;27.548;2023-09-19T08:06:23;28.30;43.60
48806;DHT22;34625;47.176;27.548;2023-09-19T08:08:51;28.30;42.40
48806;DHT22;34625;47.176;27.548;2023-09-19T08:11:19;28.10;42.20
48806;DHT22;34625;47.176;27.548;2023-09-19T08:13:47;28.30;42.80
48806;DHT22;34625;47.176;27.548;2023-09-19T08:16:17;28.20;42.70
48806;DHT22;34625;47.176;27.548;2023-09-19T08:18:48;28.10;42.60
48806;DHT22;34625;47.176;27.548;2023-09-19T08:21:21;28.20;42.20
48806;DHT22;34625;47.176;27.548;2023-09-19T08:23:47;28.20;42.20
48806;DHT22;34625;47.176;27.548;2023-09-19T08:26:13;28.30;42.00
48806;DHT22;34625;47.176;27.548;2023-09-19T08:28:39;28.20;42.40
48806;DHT22;34625;47.176;27.548;2023-09-19T08:31:08;28.30;42.50
48806;DHT22;34625;47.176;27.548;2023-09-19T08:33:36;28.20;43.20
48806;DHT22;34625;47.176;27.548;2023-09-19T08:36:03;28.20;43.50
48806;DHT22;34625;47.176;27.548;2023-09-19T08:38:34;28.30;43.90
48806;DHT22;34625;47.176;27.548;2023-09-19T08:41:05;28.40;44.00
48806;DHT22;34625;47.176;27.548;2023-09-19T08:43:32;28.10;43.90
48806;DHT22;34625;47.176;27.548;2023-09-19T08:46:11;28.10;43.70
48806;DHT22;34625;47.176;27.548;2023-09-19T08:48:54;28.20;43.50
48806;DHT22;34625;47.176;27.548;2023-09-19T08:51:26;28.30;41.90
48806;DHT22;34625;47.176;27.548;2023-09-19T08:54:06;28.30;43.10
48806;DHT22;34625;47.176;27.548;2023-09-19T08:56:33;28.20;45.30
48806;DHT22;34625;47.176;27.548;2023-09-19T08:59:02;28.40;45.50
48806;DHT22;34625;47.176;27.548;2023-09-19T09:01:28;28.50;44.40
48806;DHT22;34625;47.176;27.548;2023-09-19T09:03:56;28.60;44.20
48806;DHT22;34625;47.176;27.548;2023-09-19T09:06:24;28.60;44.10
48806;DHT22;34625;47.176;27.548;2023-09-19T09:08:53;28.60;43.40
48806;DHT22;34625;47.176;27.548;2023-09-19T09:11:20;28.70;43.30
48806;DHT22;34625;47.176;27.548;2023-09-19T09:13:47;28.80;41.90
48806;DHT22;34625;47.176;27.548;2023-09-19T09:16:14;28.70;40.70
48806;DHT22;34625;47.176;27.548;2023-09-19T09:18:45;28.90;40.60
48806;DHT22;34625;47.176;27.548;2023-09-19T09:21:12;28.80;40.60
48806;DHT22;34625;47.176;27.548;2023-09-19T09:23:39;28.70;41.10
48806;DHT22;34625;47.176;27.548;2023-09-19T09:26:05;28.90;41.00
48806;DHT22;34625;47.176;27.548;2023-09-19T09:28:34;28.90;40.80
48806;DHT22;34625;47.176;27.548;2023-09-19T09:31:01;28.90;40.80
48806;DHT22;34625;47.176;27.548;2023-09-19T09:33:38;28.90;41.60
48806;DHT22;34625;47.176;27.548;2023-09-19T09:36:05;28.90;41.30
48806;DHT22;34625;47.176;27.548;2023-09-19T09:38:46;28.90;40.70
48806;DHT22;34625;47.176;27.548;2023-09-19T09:41:16;29.00;43.50
48806;DHT22;34625;47.176;27.548;2023-09-19T09:43:53;29.40;45.50
48806;DHT22;34625;47.176;27.548;2023-09-19T09:46:20;29.70;43.60
48806;DHT22;34625;47.176;27.548;2023-09-19T09:51:37;29.50;41.40
48806;DHT22;34625;47.176;27.548;2023-09-19T09:54:17;29.40;40.80
48806;DHT22;34625;47.176;27.548;2023-09-19T09:57:05;29.50;40.80
48806;DHT22;34625;47.176;27.548;2023-09-19T09:59:57;29.50;42.00
48806;DHT22;34625;47.176;27.548;2023-09-19T10:02:42;29.50;43.30
48806;DHT22;34625;47.176;27.548;2023-09-19T10:05:20;29.50;43.00
48806;DHT22;34625;47.176;27.548;2023-09-19T10:07:53;29.40;41.50
48806;DHT22;34625;47.176;27.548;2023-09-19T10:10:32;29.30;41.40
48806;DHT22;34625;47.176;27.548;2023-09-19T10:13:20;29.40;41.10
48806;DHT22;34625;47.176;27.548;2023-09-19T10:15:52;29.40;40.90
48806;DHT22;34625;47.176;27.548;2023-09-19T10:18:24;29.40;41.40
48806;DHT22;34625;47.176;27.548;2023-09-19T10:20:51;29.40;41.20
48806;DHT22;34625;47.176;27.548;2023-09-19T10:23:19;29.40;40.80
48806;DHT22;34625;47.176;27.548;2023-09-19T10:25:49;29.30;40.60
48806;DHT22;34625;47.176;27.548;2023-09-19T10:28:17;29.20;40.50
48806;DHT22;34625;47.176;27.548;2023-09-19T10:30:51;29.30;40.40
48806;DHT22;34625;47.176;27.548;2023-09-19T10:33:19;29.30;40.40
48806;DHT22;34625;47.176;27.548;2023-09-19T10:35:52;29.20;40.10
48806;DHT22;34625;47.176;27.548;2023-09-19T10:38:26;29.20;40.40
48806;DHT22;34625;47.176;27.548;2023-09-19T10:40:56;29.30;40.70
48806;DHT22;34625;47.176;27.548;2023-09-19T10:43:29;29.20;40.80
48806;DHT22;34625;47.176;27.548;2023-09-19T10:46:01;29.20;40.80
48806;DHT22;34625;47.176;27.548;2023-09-19T10:48:29;29.20;41.20
48806;DHT22;34625;47.176;27.548;2023-09-19T10:51:18;29.10;41.00
48806;DHT22;34625;47.176;27.548;2023-09-19T10:53:53;29.20;41.10
48806;DHT22;34625;47.176;27.548;2023-09-19T10:56:37;29.10;40.60
48806;DHT22;34625;47.176;27.548;2023-09-19T10:59:11;29.00;41.30
48806;DHT22;34625;47.176;27.548;2023-09-19T11:04:33;29.10;41.50
48806;DHT22;34625;47.176;27.548;2023-09-19T11:07:03;29.00;41.80
48806;DHT22;34625;47.176;27.548;2023-09-19T11:15:04;28.80;41.10
48806;DHT22;34625;47.176;27.548;2023-09-19T11:17:37;28.80;41.30
48806;DHT22;34625;47.176;27.548;2023-09-19T11:30:33;28.70;39.50
48806;DHT22;34625;47.176;27.548;2023-09-19T11:33:19;28.60;38.60
48806;DHT22;34625;47.176;27.548;2023-09-19T11:36:14;28.60;38.50
48806;DHT22;34625;47.176;27.548;2023-09-19T11:46:52;28.70;39.90
48806;DHT22;34625;47.176;27.548;2023-09-19T11:49:24;28.80;41.70
48806;DHT22;34625;47.176;27.548;2023-09-19T11:51:52;29.10;42.00
48806;DHT22;34625;47.176;27.548;2023-09-19T11:54:18;29.30;40.80
48806;DHT22;34625;47.176;27.548;2023-09-19T11:56:54;29.40;47.30
48806;DHT22;34625;47.176;27.548;2023-09-19T11:59:25;29.70;49.40
48806;DHT22;34625;47.176;27.548;2023-09-19T12:02:01;29.50;43.30
48806;DHT22;34625;47.176;27.548;2023-09-19T12:04:43;29.50;42.90
48806;DHT22;34625;47.176;27.548;2023-09-19T12:07:12;29.30;42.60
48806;DHT22;34625;47.176;27.548;2023-09-19T12:09:43;29.10;42.00
48806;DHT22;34625;47.176;27.548;2023-09-19T12:12:10;29.10;41.60
48806;DHT22;34625;47.176;27.548;2023-09-19T12:14:43;29.10;41.60
48806;DHT22;34625;47.176;27.548;2023-09-19T12:17:13;29.10;41.40
48806;DHT22;34625;47.176;27.548;2023-09-19T12:19:56;29.10;40.90
48806;DHT22;34625;47.176;27.548;2023-09-19T12:22:22;29.10;40.70
48806;DHT22;34625;47.176;27.548;2023-09-19T12:24:48;29.10;40.50
48806;DHT22;34625;47.176;27.548;2023-09-19T12:27:16;29.00;40.30
48806;DHT22;34625;47.176;27.548;2023-09-19T12:29:44;28.90;39.70
48806;DHT22;34625;47.176;27.548;2023-09-19T12:32:10;28.90;40.00
48806;DHT22;34625;47.176;27.548;2023-09-19T12:34:36;28.90;40.10
48806;DHT22;34625;47.176;27.548;2023-09-19T12:37:14;28.90;39.90
48806;DHT22;34625;47.176;27.548;2023-09-19T12:39:48;28.90;40.40
48806;DHT22;34625;47.176;27.548;2023-09-19T12:42:17;29.00;41.20
48806;DHT22;34625;47.176;27.548;2023-09-19T12:44:53;28.90;40.60
48806;DHT22;34625;47.176;27.548;2023-09-19T12:47:24;28.80;40.80
48806;DHT22;34625;47.176;27.548;2023-09-19T12:50:12;28.90;43.20
48806;DHT22;34625;47.176;27.548;2023-09-19T13:00:42;28.80;42.50
48806;DHT22;34625;47.176;27.548;2023-09-19T13:03:26;28.90;42.20
48806;DHT22;34625;47.176;27.548;2023-09-19T13:05:59;29.00;42.60
48806;DHT22;34625;47.176;27.548;2023-09-19T13:08:28;28.90;41.90
48806;DHT22;34625;47.176;27.548;2023-09-19T13:11:13;28.90;41.90
48806;DHT22;34625;47.176;27.548;2023-09-19T13:16:17;28.80;41.80
48806;DHT22;34625;47.176;27.548;2023-09-19T13:18:50;28.90;41.80
48806;DHT22;34625;47.176;27.548;2023-09-19T13:21:26;28.90;41.70
48806;DHT22;34625;47.176;27.548;2023-09-19T13:23:54;28.80;41.50
48806;DHT22;34625;47.176;27.548;2023-09-19T13:26:27;28.60;41.40
48806;DHT22;34625;47.176;27.548;2023-09-19T13:28:56;28.90;41.30
48806;DHT22;34625;47.176;27.548;2023-09-19T13:31:22;28.80;41.20
48806;DHT22;34625;47.176;27.548;2023-09-19T13:33:49;28.70;41.20
48806;DHT22;34625;47.176;27.548;2023-09-19T13:36:16;28.70;41.20
48806;DHT22;34625;47.176;27.548;2023-09-19T13:38:44;28.70;41.30
48806;DHT22;34625;47.176;27.548;2023-09-19T13:41:10;28.70;41.30
48806;DHT22;34625;47.176;27.548;2023-09-19T13:43:37;28.60;41.50
48806;DHT22;34625;47.176;27.548;2023-09-19T13:46:05;28.70;41.50
48806;DHT22;34625;47.176;27.548;2023-09-19T13:48:33;28.70;41.60
48806;DHT22;34625;47.176;27.548;2023-09-19T13:51:02;28.70;41.70
48806;DHT22;34625;47.176;27.548;2023-09-19T13:53:29;28.70;41.90
48806;DHT22;34625;47.176;27.548;2023-09-19T13:55:55;28.70;42.00
48806;DHT22;34625;47.176;27.548;2023-09-19T13:58:22;28.70;42.10
48806;DHT22;34625;47.176;27.548;2023-09-19T14:00:48;28.70;42.20
48806;DHT22;34625;47.176;27.548;2023-09-19T14:03:14;28.70;42.30
48806;DHT22;34625;47.176;27.548;2023-09-19T14:05:40;28.70;42.30
48806;DHT22;34625;47.176;27.548;2023-09-19T14:08:08;28.70;42.40
48806;DHT22;34625;47.176;27.548;2023-09-19T14:10:34;28.60;42.40
48806;DHT22;34625;47.176;27.548;2023-09-19T14:13:00;28.60;42.50
48806;DHT22;34625;47.176;27.548;2023-09-19T14:15:27;28.60;42.60
48806;DHT22;34625;47.176;27.548;2023-09-19T14:17:57;28.60;42.70
48806;DHT22;34625;47.176;27.548;2023-09-19T14:20:23;28.40;42.70
48806;DHT22;34625;47.176;27.548;2023-09-19T14:22:49;28.70;42.80
48806;DHT22;34625;47.176;27.548;2023-09-19T14:25:15;28.60;42.90
48806;DHT22;34625;47.176;27.548;2023-09-19T14:27:41;28.60;43.00
48806;DHT22;34625;47.176;27.548;2023-09-19T14:30:07;28.40;43.10
48806;DHT22;34625;47.176;27.548;2023-09-19T14:32:34;28.60;43.00
48806;DHT22;34625;47.176;27.548;2023-09-19T14:35:02;28.60;43.10
48806;DHT22;34625;47.176;27.548;2023-09-19T14:37:28;28.50;43.30
48806;DHT22;34625;47.176;27.548;2023-09-19T14:39:54;28.40;43.50
48806;DHT22;34625;47.176;27.548;2023-09-19T14:42:20;28.60;44.60
48806;DHT22;34625;47.176;27.548;2023-09-19T14:44:46;28.50;45.50
48806;DHT22;34625;47.176;27.548;2023-09-19T14:47:14;28.80;46.40
48806;DHT22;34625;47.176;27.548;2023-09-19T14:49:40;28.80;49.10
48806;DHT22;34625;47.176;27.548;2023-09-19T14:52:11;28.80;46.30
48806;DHT22;34625;47.176;27.548;2023-09-19T14:54:38;28.80;45.90
48806;DHT22;34625;47.176;27.548;2023-09-19T14:57:07;28.80;44.90
48806;DHT22;34625;47.176;27.548;2023-09-19T14:59:34;28.70;46.10
48806;DHT22;34625;47.176;27.548;2023-09-19T15:02:04;28.90;45.00
48806;DHT22;34625;47.176;27.548;2023-09-19T15:04:30;28.90;44.50
48806;DHT22;34625;47.176;27.548;2023-09-19T15:06:57;29.00;43.70
48806;DHT22;34625;47.176;27.548;2023-09-19T15:09:24;29.00;43.70
48806;DHT22;34625;47.176;27.548;2023-09-19T15:11:55;29.00;43.70
48806;DHT22;34625;47.176;27.548;2023-09-19T15:14:21;29.10;43.90
48806;DHT22;34625;47.176;27.548;2023-09-19T15:16:48;29.00;44.00
48806;DHT22;34625;47.176;27.548;2023-09-19T15:19:14;29.10;44.10
48806;DHT22;34625;47.176;27.548;2023-09-19T15:21:41;29.00;44.20
48806;DHT22;34625;47.176;27.548;2023-09-19T15:24:07;29.10;44.30
48806;DHT22;34625;47.176;27.548;2023-09-19T15:26:37;29.10;44.30
48806;DHT22;34625;47.176;27.548;2023-09-19T15:29:07;29.20;46.60
48806;DHT22;34625;47.176;27.548;2023-09-19T15:31:33;29.30;47.60
48806;DHT22;34625;47.176;27.548;2023-09-19T15:33:59;29.50;46.90
48806;DHT22;34625;47.176;27.548;2023-09-19T15:36:26;29.60;44.50
48806;DHT22;34625;47.176;27.548;2023-09-19T15:38:57;29.50;43.20
48806;DHT22;34625;47.176;27.548;2023-09-19T15:41:25;29.50;43.50
48806;DHT22;34625;47.176;27.548;2023-09-19T15:43:51;29.50;43.70
48806;DHT22;34625;47.176;27.548;2023-09-19T15:46:17;29.40;43.80
48806;DHT22;34625;47.176;27.548;2023-09-19T15:48:43;29.30;43.90
48806;DHT22;34625;47.176;27.548;2023-09-19T15:51:10;29.50;44.00
48806;DHT22;34625;47.176;27.548;2023-09-19T15:53:50;29.40;44.10
48806;DHT22;34625;47.176;27.548;2023-09-19T15:56:18;29.30;44.20
48806;DHT22;34625;47.176;27.548;2023-09-19T15:58:45;29.50;44.40
48806;DHT22;34625;47.176;27.548;2023-09-19T16:01:11;29.30;44.40
48806;DHT22;34625;47.176;27.548;2023-09-19T16:03:39;29.30;44.50
48806;DHT22;34625;47.176;27.548;2023-09-19T16:06:13;29.30;44.60
48806;DHT22;34625;47.176;27.548;2023-09-19T16:08:44;29.30;44.70
48806;DHT22;34625;47.176;27.548;2023-09-19T16:11:10;29.30;44.80
48806;DHT22;34625;47.176;27.548;2023-09-19T16:13:40;29.40;45.00
48806;DHT22;34625;47.176;27.548;2023-09-19T16:16:08;29.20;45.10
48806;DHT22;34625;47.176;27.548;2023-09-19T16:21:14;29.20;45.20
48806;DHT22;34625;47.176;27.548;2023-09-19T16:23:41;29.10;45.20
48806;DHT22;34625;47.176;27.548;2023-09-19T16:26:10;29.20;45.30
48806;DHT22;34625;47.176;27.548;2023-09-19T16:28:38;29.20;45.50
48806;DHT22;34625;47.176;27.548;2023-09-19T16:31:05;29.20;45.60
48806;DHT22;34625;47.176;27.548;2023-09-19T16:33:33;29.20;45.60
48806;DHT22;34625;47.176;27.548;2023-09-19T16:35:59;29.20;45.70